createdAt,value
2022-09-06T00:02:21.466Z,3.67
2022-09-06T00:04:50.126Z,3.22
2022-09-06T00:07:18.171Z,3.20
2022-09-06T00:09:46.281Z,3.40
2022-09-06T00:12:14.505Z,3.63
2022-09-06T00:14:42.946Z,3.50
2022-09-06T00:17:12.617Z,3.88
2022-09-06T00:19:40.684Z,3.58
2022-09-06T00:22:09.556Z,3.67
2022-09-06T00:24:37.667Z,3.60
2022-09-06T00:27:06.731Z,3.53
2022-09-06T00:29:35.463Z,4.07
2022-09-06T00:32:03.879Z,4.40
2022-09-06T00:34:33.585Z,3.55
2022-09-06T00:37:01.768Z,3.65
2022-09-06T00:39:29.985Z,3.28
2022-09-06T00:41:58.262Z,3.55
2022-09-06T00:44:26.383Z,3.80
2022-09-06T00:46:56.553Z,4.13
2022-09-06T00:49:27.346Z,3.30
2022-09-06T00:52:00.291Z,4.13
2022-09-06T00:54:29.371Z,3.53
2022-09-06T00:56:59.204Z,3.03
2022-09-06T00:59:28.764Z,3.47
2022-09-06T01:01:57.166Z,3.40
2022-09-06T01:04:26.714Z,4.10
2022-09-06T01:07:04.225Z,2.97
2022-09-06T01:09:48.727Z,3.97
2022-09-06T01:12:34.922Z,3.25
2022-09-06T01:15:13.947Z,4.20
2022-09-06T01:17:55.650Z,4.25
2022-09-06T01:20:41.996Z,3.83
2022-09-06T01:23:38.027Z,4.13
2022-09-06T01:26:25.868Z,3.58
2022-09-06T01:28:56.120Z,3.83
2022-09-06T01:31:33.538Z,4.38
2022-09-06T01:34:20.805Z,3.80
2022-09-06T01:37:09.358Z,3.65
2022-09-06T01:39:38.586Z,3.97
2022-09-06T01:42:11.564Z,3.92
2022-09-06T01:44:45.933Z,3.70
2022-09-06T01:47:25.830Z,5.35
2022-09-06T01:50:11.778Z,3.83
2022-09-06T01:52:51.795Z,4.25
2022-09-06T01:55:28.632Z,3.83
2022-09-06T01:58:12.535Z,3.97
2022-09-06T02:00:49.650Z,4.53
2022-09-06T02:03:29.313Z,4.00
2022-09-06T02:06:03.923Z,4.25
2022-09-06T02:08:37.056Z,4.45
2022-09-06T02:11:07.179Z,4.28
2022-09-06T02:13:39.622Z,4.10
2022-09-06T02:16:12.156Z,4.03
2022-09-06T02:21:14.966Z,4.15
2022-09-06T02:23:45.386Z,4.50
2022-09-06T02:26:18.684Z,4.20
2022-09-06T02:28:47.361Z,4.18
2022-09-06T02:31:22.873Z,4.18
2022-09-06T02:33:52.414Z,4.10
2022-09-06T02:36:21.273Z,4.38
2022-09-06T02:38:49.681Z,4.47
2022-09-06T02:41:22.830Z,4.95
2022-09-06T02:43:51.107Z,4.15
2022-09-06T02:46:20.806Z,4.60
2022-09-06T02:48:49.030Z,4.68
2022-09-06T02:51:17.397Z,4.80
2022-09-06T02:53:45.559Z,5.05
2022-09-06T02:56:13.853Z,5.00
2022-09-06T02:58:41.999Z,6.10
2022-09-06T03:01:10.244Z,4.63
2022-09-06T03:03:39.926Z,5.07
2022-09-06T03:06:08.419Z,4.85
2022-09-06T03:08:36.707Z,4.72
2022-09-06T03:11:04.924Z,5.43
2022-09-06T03:13:33.084Z,5.00
2022-09-06T03:16:02.185Z,6.00
2022-09-06T03:18:31.954Z,4.90
2022-09-06T03:21:01.899Z,4.97
2022-09-06T03:23:30.875Z,4.63
2022-09-06T03:25:59.101Z,4.63
2022-09-06T03:28:27.956Z,4.78
2022-09-06T03:30:56.424Z,4.38
2022-09-06T03:33:24.917Z,5.15
2022-09-06T03:35:55.258Z,4.88
2022-09-06T03:38:26.147Z,4.50
2022-09-06T03:40:55.463Z,4.95
2022-09-06T03:43:25.752Z,5.80
2022-09-06T03:45:55.740Z,4.43
2022-09-06T03:48:25.712Z,4.85
2022-09-06T03:50:56.243Z,4.70
2022-09-06T03:53:27.284Z,4.80
2022-09-06T03:55:57.749Z,4.80
2022-09-06T03:58:27.052Z,4.68
2022-09-06T04:01:02.731Z,5.15
2022-09-06T04:03:31.035Z,4.68
2022-09-06T04:05:59.265Z,4.78
2022-09-06T04:08:29.213Z,4.75
2022-09-06T04:10:58.926Z,4.65
2022-09-06T04:13:29.082Z,4.25
2022-09-06T04:15:57.596Z,5.07
2022-09-06T04:18:26.184Z,4.53
2022-09-06T04:20:56.636Z,4.75
2022-09-06T04:23:26.298Z,4.35
2022-09-06T04:25:57.174Z,4.68
2022-09-06T04:28:26.930Z,4.53
2022-09-06T04:30:58.135Z,4.15
2022-09-06T04:33:30.162Z,4.60
2022-09-06T04:36:00.235Z,4.40
2022-09-06T04:38:29.910Z,4.45
2022-09-06T04:40:59.537Z,4.70
2022-09-06T04:43:27.859Z,4.53
2022-09-06T04:45:56.042Z,4.50
2022-09-06T04:48:24.269Z,5.10
2022-09-06T04:50:52.531Z,4.30
2022-09-06T04:53:20.637Z,4.47
2022-09-06T04:55:48.751Z,4.78
2022-09-06T04:58:18.260Z,4.30
2022-09-06T05:00:46.435Z,5.35
2022-09-06T05:03:16.743Z,4.93
2022-09-06T05:05:44.963Z,4.45
2022-09-06T05:08:13.241Z,5.18
2022-09-06T05:10:41.426Z,4.80
2022-09-06T05:13:09.661Z,4.30
2022-09-06T05:15:39.252Z,4.72
2022-09-06T05:18:07.445Z,4.85
2022-09-06T05:20:35.813Z,4.88
2022-09-06T05:23:03.923Z,4.75
2022-09-06T05:25:32.291Z,4.57
2022-09-06T05:28:00.351Z,5.15
2022-09-06T05:30:28.587Z,4.90
2022-09-06T05:32:58.030Z,5.30
2022-09-06T05:35:26.124Z,4.95
2022-09-06T05:37:54.168Z,4.80
2022-09-06T05:40:22.290Z,5.10
2022-09-06T05:42:50.359Z,4.78
2022-09-06T05:45:18.474Z,4.57
2022-09-06T05:47:46.604Z,4.15
2022-09-06T05:50:16.200Z,4.32
2022-09-06T05:52:44.369Z,4.85
2022-09-06T05:55:12.685Z,4.75
2022-09-06T05:57:40.906Z,4.82
2022-09-06T06:00:12.261Z,4.38
2022-09-06T06:02:41.210Z,4.47
2022-09-06T06:05:09.971Z,4.82
2022-09-06T06:07:39.544Z,4.50
2022-09-06T06:10:08.400Z,5.40
2022-09-06T06:12:36.600Z,4.93
2022-09-06T06:15:05.945Z,4.90
2022-09-06T06:17:34.170Z,5.30
2022-09-06T06:20:02.399Z,4.30
2022-09-06T06:22:30.599Z,4.63
2022-09-06T06:25:00.204Z,4.75
2022-09-06T06:27:28.449Z,4.47
2022-09-06T06:29:56.643Z,5.70
2022-09-06T06:32:25.277Z,4.60
2022-09-06T06:34:53.480Z,4.70
2022-09-06T06:37:21.637Z,5.55
2022-09-06T06:39:49.923Z,5.15
2022-09-06T06:42:19.564Z,5.30
2022-09-06T06:44:47.747Z,5.00
2022-09-06T06:47:16.132Z,5.00
2022-09-06T06:49:44.264Z,5.13
2022-09-06T06:52:12.619Z,5.00
2022-09-06T06:54:41.570Z,5.80
2022-09-06T06:57:10.466Z,6.10
2022-09-06T06:59:40.688Z,5.38
2022-09-06T07:02:08.970Z,5.18
2022-09-06T07:04:37.659Z,5.47
2022-09-06T07:12:43.035Z,5.43
2022-09-06T07:15:12.670Z,5.32
2022-09-06T07:17:40.786Z,5.20
2022-09-06T07:22:41.153Z,5.50
2022-09-06T07:25:13.373Z,5.43
2022-09-06T07:30:19.925Z,5.05
2022-09-06T07:32:48.383Z,5.10
2022-09-06T07:35:19.618Z,5.25
2022-09-06T07:37:59.778Z,5.25
2022-09-06T07:40:29.608Z,5.25
2022-09-06T07:42:58.676Z,4.88
2022-09-06T07:45:28.293Z,5.18
2022-09-06T07:47:59.168Z,4.97
2022-09-06T07:53:23.063Z,5.35
2022-09-06T07:55:57.384Z,6.33
2022-09-06T07:58:25.661Z,5.45
2022-09-06T08:00:55.395Z,5.15
2022-09-06T08:03:23.619Z,5.00
2022-09-06T08:11:25.097Z,5.15
2022-09-06T08:13:54.921Z,5.45
2022-09-06T08:16:25.938Z,5.40
2022-09-06T08:18:55.750Z,5.88
2022-09-06T08:21:25.538Z,5.88
2022-09-06T08:23:55.301Z,5.50
2022-09-06T08:26:25.525Z,5.43
2022-09-06T08:28:57.692Z,5.53
2022-09-06T08:31:28.484Z,5.53
2022-09-06T08:33:57.682Z,5.43
2022-09-06T08:36:27.398Z,5.50
2022-09-06T08:38:55.773Z,5.63
2022-09-06T08:41:27.617Z,5.30
2022-09-06T08:46:55.821Z,5.45
2022-09-06T08:49:25.544Z,6.07
2022-09-06T08:52:25.415Z,6.88
2022-09-06T08:55:03.547Z,5.50
2022-09-06T08:57:46.819Z,6.43
2022-09-06T09:00:15.612Z,6.32
2022-09-06T09:02:48.978Z,6.63
2022-09-06T09:05:26.984Z,6.03
2022-09-06T09:08:05.633Z,5.38
2022-09-06T09:10:42.690Z,6.10
2022-09-06T09:13:21.715Z,5.75
2022-09-06T09:15:50.019Z,6.55
2022-09-06T09:18:25.946Z,6.43
2022-09-06T09:20:54.555Z,6.05
2022-09-06T09:23:22.711Z,6.40
2022-09-06T09:25:54.007Z,6.15
2022-09-06T09:28:26.087Z,5.70
2022-09-06T09:30:55.809Z,5.65
2022-09-06T09:33:29.350Z,5.97
2022-09-06T09:35:59.989Z,5.45
2022-09-06T09:38:30.740Z,6.10
2022-09-06T09:41:01.104Z,5.35
2022-09-06T09:43:32.482Z,5.93
2022-09-06T09:46:30.061Z,5.40
2022-09-06T09:49:06.780Z,5.32
2022-09-06T09:51:37.086Z,4.93
2022-09-06T09:54:07.141Z,4.85
2022-09-06T09:56:43.704Z,5.35
2022-09-06T09:59:25.296Z,5.05
2022-09-06T10:01:56.886Z,5.00
2022-09-06T10:04:45.693Z,4.80
2022-09-06T10:07:17.547Z,5.15
2022-09-06T10:09:48.134Z,5.18
2022-09-06T10:12:28.628Z,4.90
2022-09-06T10:14:57.943Z,5.10
2022-09-06T10:17:32.879Z,4.45
2022-09-06T10:20:08.094Z,5.50
2022-09-06T10:22:45.183Z,5.13
2022-09-06T10:25:39.115Z,4.95
2022-09-06T10:28:27.168Z,4.60
2022-09-06T10:31:08.233Z,5.28
2022-09-06T10:33:50.425Z,5.65
2022-09-06T10:36:24.409Z,4.95
2022-09-06T10:38:58.360Z,4.70
2022-09-06T10:41:41.539Z,5.20
2022-09-06T10:44:24.440Z,4.93
2022-09-06T10:47:02.162Z,4.78
2022-09-06T10:49:30.344Z,5.13
2022-09-06T10:52:04.618Z,5.93
2022-09-06T10:54:36.765Z,5.63
2022-09-06T11:00:04.222Z,4.38
2022-09-06T11:02:42.626Z,5.25
2022-09-06T11:10:56.086Z,5.15
2022-09-06T11:13:28.298Z,5.35
2022-09-06T11:16:06.732Z,4.53
2022-09-06T11:18:41.306Z,4.85
2022-09-06T11:21:41.348Z,3.72
2022-09-06T11:24:14.512Z,3.83
2022-09-06T11:26:45.749Z,4.05
2022-09-06T11:29:21.236Z,3.93
2022-09-06T11:34:55.461Z,3.42
2022-09-06T11:37:27.455Z,4.18
2022-09-06T11:43:20.002Z,3.47
2022-09-06T11:45:50.867Z,3.20
2022-09-06T11:49:02.769Z,3.75
2022-09-06T11:51:37.500Z,3.40
2022-09-06T11:54:18.263Z,3.70
2022-09-06T11:56:54.658Z,3.10
2022-09-06T11:59:35.404Z,3.08
2022-09-06T12:02:05.909Z,3.45
2022-09-06T12:05:07.606Z,3.03
2022-09-06T12:07:36.930Z,3.05
2022-09-06T12:10:52.619Z,2.92
2022-09-06T12:14:06.279Z,2.78
2022-09-06T12:17:26.218Z,2.45
2022-09-06T12:20:05.192Z,3.13
2022-09-06T12:22:55.694Z,3.00
2022-09-06T12:25:57.050Z,2.78
2022-09-06T12:28:44.442Z,2.80
2022-09-06T12:31:31.046Z,2.85
2022-09-06T12:34:00.338Z,3.47
2022-09-06T12:36:33.111Z,2.60
2022-09-06T12:39:03.466Z,2.90
2022-09-06T12:41:34.092Z,2.60
2022-09-06T12:44:05.421Z,2.92
2022-09-06T12:46:34.351Z,2.60
2022-09-06T12:49:05.209Z,2.63
2022-09-06T12:51:35.309Z,2.40
2022-09-06T12:54:06.172Z,2.30
2022-09-06T12:56:35.568Z,2.80
2022-09-06T12:59:17.328Z,2.58
2022-09-06T13:01:52.506Z,2.72
2022-09-06T13:04:28.586Z,2.63
2022-09-06T13:06:59.053Z,2.83
2022-09-06T13:09:30.221Z,2.97
2022-09-06T13:12:06.605Z,2.92
2022-09-06T13:14:36.059Z,2.72
2022-09-06T13:17:04.532Z,2.80
2022-09-06T13:19:35.888Z,2.45
2022-09-06T13:22:07.801Z,2.63
2022-09-06T13:24:47.803Z,3.03
2022-09-06T13:27:24.832Z,2.90
2022-09-06T13:29:57.561Z,2.70
2022-09-06T13:32:27.225Z,3.03
2022-09-06T13:34:58.039Z,3.17
2022-09-06T13:37:29.207Z,2.78
2022-09-06T13:40:00.005Z,3.63
2022-09-06T13:42:30.614Z,3.05
2022-09-06T13:45:02.096Z,3.17
2022-09-06T13:47:31.450Z,2.97
2022-09-06T13:49:59.603Z,2.90
2022-09-06T13:52:29.651Z,3.50
2022-09-06T13:54:57.860Z,3.65
2022-09-06T13:57:26.234Z,3.22
2022-09-06T13:59:54.979Z,3.40
2022-09-06T14:02:25.137Z,3.45
2022-09-06T14:04:53.399Z,3.20
2022-09-06T14:07:33.148Z,3.80
2022-09-06T14:10:02.642Z,3.70
2022-09-06T14:12:30.757Z,4.72
2022-09-06T14:14:59.212Z,3.25
2022-09-06T14:17:27.535Z,3.95
2022-09-06T14:19:55.793Z,3.40
2022-09-06T14:22:24.037Z,4.00
2022-09-06T14:24:52.313Z,4.03
2022-09-06T14:27:22.377Z,3.80
2022-09-06T14:29:50.795Z,3.85
2022-09-06T14:32:22.535Z,3.75
2022-09-06T14:37:19.191Z,3.55
2022-09-06T14:39:47.440Z,3.72
2022-09-06T14:42:15.805Z,3.72
2022-09-06T14:44:46.971Z,3.38
2022-09-06T14:47:15.157Z,3.63
2022-09-06T14:49:43.411Z,3.70
2022-09-06T14:52:11.610Z,3.35
2022-09-06T14:54:39.832Z,3.20
2022-09-06T14:57:09.848Z,3.80
2022-09-06T14:59:38.392Z,3.55
2022-09-06T15:02:08.467Z,3.80
2022-09-06T15:04:36.723Z,2.88
2022-09-06T15:07:05.042Z,3.50
2022-09-06T15:09:33.291Z,3.55
2022-09-06T15:12:01.783Z,2.95
2022-09-06T15:14:30.759Z,3.20
2022-09-06T15:17:00.754Z,4.20
2022-09-06T15:19:33.248Z,4.00
2022-09-06T15:22:01.581Z,4.18
2022-09-06T15:24:30.420Z,4.43
2022-09-06T15:26:59.289Z,4.95
2022-09-06T15:29:28.223Z,4.75
2022-09-06T15:31:57.349Z,4.50
2022-09-06T15:34:27.568Z,5.20
2022-09-06T15:36:57.629Z,4.60
2022-09-06T15:39:25.952Z,5.47
2022-09-06T15:41:54.169Z,5.38
2022-09-06T15:44:22.787Z,4.65
2022-09-06T15:46:54.144Z,5.05
2022-09-06T15:49:27.798Z,5.10
2022-09-06T15:51:59.164Z,4.95
2022-09-06T15:54:41.826Z,5.60
2022-09-06T15:57:10.222Z,5.95
2022-09-06T15:59:38.589Z,5.53
2022-09-06T16:02:06.989Z,5.70
2022-09-06T16:04:35.183Z,5.95
2022-09-06T16:07:05.143Z,5.13
2022-09-06T16:09:33.315Z,5.15
2022-09-06T16:12:01.536Z,5.45
2022-09-06T16:14:29.866Z,5.78
2022-09-06T16:16:58.229Z,5.15
2022-09-06T16:19:27.464Z,4.60
2022-09-06T16:21:55.654Z,5.38
2022-09-06T16:24:25.285Z,4.78
2022-09-06T16:26:53.554Z,5.32
2022-09-06T16:29:22.548Z,4.55
2022-09-06T16:31:50.818Z,5.18
2022-09-06T16:34:19.302Z,5.00
2022-09-06T16:36:47.800Z,4.93
2022-09-06T16:39:16.057Z,4.80
2022-09-06T16:41:47.081Z,5.25
2022-09-06T16:44:17.919Z,5.28
2022-09-06T16:46:47.078Z,5.57
2022-09-06T16:49:17.200Z,5.28
2022-09-06T16:51:46.237Z,4.82
2022-09-06T16:54:15.694Z,5.22
2022-09-06T16:56:45.878Z,5.47
2022-09-06T16:59:17.418Z,4.90
2022-09-06T17:01:45.825Z,4.93
2022-09-06T17:04:14.252Z,5.13
2022-09-06T17:06:45.855Z,5.05
2022-09-06T17:09:20.269Z,4.40
2022-09-06T17:11:50.748Z,5.45
2022-09-06T17:14:19.744Z,4.72
2022-09-06T17:17:05.424Z,4.88
2022-09-06T17:19:36.852Z,5.25
2022-09-06T17:22:05.064Z,5.18
2022-09-06T17:24:33.329Z,5.40
2022-09-06T17:27:03.274Z,5.63
2022-09-06T17:29:31.743Z,5.65
2022-09-06T17:32:00.218Z,5.88
2022-09-06T17:34:28.970Z,5.25
2022-09-06T17:36:57.307Z,4.95
2022-09-06T17:39:25.653Z,5.75
2022-09-06T17:41:54.937Z,5.78
2022-09-06T17:44:26.608Z,5.95
2022-09-06T17:47:12.520Z,5.30
2022-09-06T17:49:41.944Z,5.38
2022-09-06T17:52:10.299Z,5.50
2022-09-06T17:54:38.682Z,5.70
2022-09-06T17:57:07.049Z,5.72
2022-09-06T17:59:36.705Z,5.90
2022-09-06T18:02:06.182Z,5.40
2022-09-06T18:04:34.850Z,6.38
2022-09-06T18:07:03.466Z,6.63
2022-09-06T18:09:33.045Z,6.13
2022-09-06T18:12:02.324Z,5.80
2022-09-06T18:14:31.195Z,5.70
2022-09-06T18:17:00.862Z,5.88
2022-09-06T18:19:29.524Z,6.13
2022-09-06T18:21:58.284Z,6.07
2022-09-06T18:24:26.851Z,6.10
2022-09-06T18:26:55.846Z,6.20
2022-09-06T18:29:24.363Z,6.97
2022-09-06T18:31:55.805Z,6.75
2022-09-06T18:34:25.799Z,7.63
2022-09-06T18:36:54.018Z,6.68
2022-09-06T18:39:22.416Z,6.07
2022-09-06T18:42:04.420Z,6.60
2022-09-06T18:44:34.460Z,6.53
2022-09-06T18:47:06.000Z,5.80
2022-09-06T18:49:39.475Z,6.83
2022-09-06T18:52:10.407Z,6.55
2022-09-06T18:54:38.847Z,6.18
2022-09-06T18:57:07.322Z,5.63
2022-09-06T18:59:36.113Z,5.80
2022-09-06T19:02:04.896Z,6.30
2022-09-06T19:04:33.446Z,6.35
2022-09-06T19:07:04.558Z,6.05
2022-09-06T19:09:33.193Z,6.05
2022-09-06T19:12:01.954Z,6.40
2022-09-06T19:14:30.102Z,6.32
2022-09-06T19:16:58.490Z,6.22
2022-09-06T19:19:27.003Z,6.93
2022-09-06T19:21:55.456Z,6.30
2022-09-06T19:24:26.061Z,6.35
2022-09-06T19:26:55.636Z,6.80
2022-09-06T19:29:24.125Z,6.20
2022-09-06T19:31:53.390Z,6.78
2022-09-06T19:34:22.456Z,6.47
2022-09-06T19:36:55.636Z,6.22
2022-09-06T19:39:32.341Z,6.40
2022-09-06T19:42:03.478Z,6.63
2022-09-06T19:44:32.144Z,5.85
2022-09-06T19:47:01.203Z,6.53
2022-09-06T19:49:31.180Z,6.15
2022-09-06T19:51:59.681Z,6.50
2022-09-06T19:54:29.599Z,6.80
2022-09-06T19:57:00.902Z,6.82
2022-09-06T19:59:29.447Z,6.93
2022-09-06T20:01:58.085Z,6.70
2022-09-06T20:04:28.722Z,7.13
2022-09-06T20:06:57.453Z,7.68
2022-09-06T20:09:28.648Z,7.70
2022-09-06T20:11:58.592Z,7.25
2022-09-06T20:14:27.134Z,7.53
2022-09-06T20:17:02.854Z,6.93
2022-09-06T20:19:39.621Z,7.30
2022-09-06T20:22:08.979Z,6.75
2022-09-06T20:24:38.097Z,7.68
2022-09-06T20:27:07.975Z,7.63
2022-09-06T20:29:36.392Z,7.65
2022-09-06T20:32:04.891Z,6.82
2022-09-06T20:34:33.590Z,7.10
2022-09-06T20:37:02.005Z,7.43
2022-09-06T20:39:30.685Z,7.00
2022-09-06T20:42:01.049Z,7.32
2022-09-06T20:44:31.458Z,6.70
2022-09-06T20:47:01.369Z,6.93
2022-09-06T20:49:30.023Z,6.95
2022-09-06T20:51:58.441Z,7.55
2022-09-06T20:54:26.690Z,7.38
2022-09-06T20:56:55.677Z,7.07
2022-09-06T20:59:24.170Z,8.00
2022-09-06T21:01:54.179Z,7.55
2022-09-06T21:04:22.370Z,8.10
2022-09-06T21:06:51.192Z,8.75
2022-09-06T21:09:19.771Z,9.38
2022-09-06T21:11:48.025Z,8.57
2022-09-06T21:14:16.367Z,9.75
2022-09-06T21:16:44.869Z,8.63
2022-09-06T21:19:14.579Z,8.38
2022-09-06T21:21:42.814Z,7.63
2022-09-06T21:24:12.051Z,7.90
2022-09-06T21:26:41.090Z,7.68
2022-09-06T21:29:09.206Z,7.60
2022-09-06T21:31:38.754Z,7.85
2022-09-06T21:34:16.304Z,7.68
2022-09-06T21:36:46.653Z,7.68
2022-09-06T21:39:16.338Z,7.78
2022-09-06T21:41:45.960Z,8.00
2022-09-06T21:44:14.681Z,7.28
2022-09-06T21:46:43.729Z,7.80
2022-09-06T21:49:13.759Z,7.80
2022-09-06T21:51:42.647Z,7.03
2022-09-06T21:54:12.256Z,7.68
2022-09-06T21:56:43.057Z,7.78
2022-09-06T21:59:11.245Z,7.35
2022-09-06T22:01:40.859Z,8.38
2022-09-06T22:04:09.676Z,7.47
2022-09-06T22:06:40.256Z,7.00
2022-09-06T22:09:11.388Z,7.93
2022-09-06T22:11:43.899Z,8.52
2022-09-06T22:14:17.510Z,8.07
2022-09-06T22:16:45.722Z,7.68
2022-09-06T22:19:15.820Z,7.47
2022-09-06T22:21:44.093Z,8.10
2022-09-06T22:24:14.449Z,7.15
2022-09-06T22:26:44.291Z,7.95
2022-09-06T22:29:15.665Z,7.80
2022-09-06T22:31:43.961Z,8.10
2022-09-06T22:34:14.918Z,9.40
2022-09-06T22:36:43.565Z,8.68
2022-09-06T22:39:11.844Z,8.40
2022-09-06T22:41:40.166Z,8.50
2022-09-06T22:44:09.798Z,8.18
2022-09-06T22:46:38.532Z,8.07
2022-09-06T22:49:07.082Z,8.32
2022-09-06T22:51:35.270Z,8.27
2022-09-06T22:54:04.827Z,8.75
2022-09-06T22:56:33.669Z,8.52
2022-09-06T22:59:01.849Z,8.23
2022-09-06T23:01:32.886Z,8.45
2022-09-06T23:04:01.302Z,8.35
2022-09-06T23:06:29.463Z,8.82
2022-09-06T23:08:57.690Z,8.02
2022-09-06T23:11:26.191Z,9.05
2022-09-06T23:13:57.340Z,8.35
2022-09-06T23:16:28.577Z,8.00
2022-09-06T23:18:58.186Z,9.05
2022-09-06T23:21:27.635Z,9.05
2022-09-06T23:23:57.373Z,9.00
2022-09-06T23:26:29.927Z,8.93
2022-09-06T23:31:28.341Z,8.38
2022-09-06T23:33:59.467Z,9.13
2022-09-06T23:36:28.439Z,8.82
2022-09-06T23:38:57.205Z,8.63
2022-09-06T23:41:26.112Z,8.38
2022-09-06T23:43:54.330Z,8.73
2022-09-06T23:46:22.590Z,8.98
2022-09-06T23:48:50.964Z,8.57
2022-09-06T23:51:20.758Z,8.50
2022-09-06T23:53:49.020Z,8.48
2022-09-06T23:56:17.244Z,8.23
2022-09-06T23:58:45.390Z,8.27
